Saturday, April 18, 2015, 3:11 AM EDT

KJYO, Leesburg / Godfrey

Location: Leesburg, VA, United States Lat: 39.083
Local Time: 3:11 AM EDT ( 7:11 GMT) Lon: -77.567
Time Zone: US/Eastern Elev: 390 ft

Show me the last for .
Show Decoded

2015-04-18 02:35 METAR KJYO 180635Z AUTO 00000KT 10SM CLR 14/13 A3001 RMK AO2 =
2015-04-18 02:15 METAR KJYO 180615Z AUTO 00000KT 10SM CLR 14/13 A3001 RMK AO2 =
2015-04-18 01:55 METAR KJYO 180555Z AUTO 00000KT 10SM CLR 15/14 A3001 RMK AO2 =
2015-04-18 01:35 METAR KJYO 180535Z AUTO 00000KT 10SM CLR 15/13 A3002 RMK AO2 =
2015-04-18 01:15 METAR KJYO 180515Z AUTO 00000KT 10SM CLR 15/13 A3002 RMK AO2 =
2015-04-18 00:55 METAR KJYO 180455Z AUTO 34004KT 10SM SCT050 17/14 A3002 RMK AO2 =
2015-04-18 00:35 METAR KJYO 180435Z AUTO 00000KT 10SM SCT050 17/14 A3002 RMK AO2 =
2015-04-18 00:15 METAR KJYO 180415Z AUTO 00000KT 10SM CLR 17/15 A3001 RMK AO2 =
2015-04-17 23:55 METAR KJYO 180355Z AUTO 32004KT 10SM SCT055 16/15 A3001 RMK AO2 =
2015-04-17 23:35 METAR KJYO 180335Z AUTO 00000KT 10SM SCT055 17/15 A3001 RMK AO2 =
2015-04-17 23:15 METAR KJYO 180315Z AUTO 33004KT 10SM OVC055 17/15 A3001 RMK AO2 =
2015-04-17 22:55 METAR KJYO 180255Z AUTO 00000KT 10SM SCT055 17/15 A3001 RMK AO2 =
2015-04-17 22:35 METAR KJYO 180235Z AUTO 00000KT 10SM CLR 18/16 A3001 RMK AO2 =
2015-04-17 21:35 METAR KJYO 180135Z AUTO 28003KT 10SM CLR 18/16 A3000 RMK AO2 =
2015-04-17 21:15 METAR KJYO 180115Z AUTO 00000KT 10SM CLR 19/16 A2999 RMK AO2 =
2015-04-17 20:55 METAR KJYO 180055Z AUTO 29003KT 10SM CLR 20/16 A2998 RMK AO2 =
2015-04-17 20:35 METAR KJYO 180035Z AUTO 00000KT 10SM BKN080 21/16 A2998 RMK AO2 =
2015-04-17 20:15 METAR KJYO 180015Z AUTO 00000KT 10SM OVC080 21/16 A2997 RMK AO2 =
2015-04-17 19:55 METAR KJYO 172355Z AUTO 28003KT 10SM OVC070 21/16 A2996 RMK AO2 =
2015-04-17 19:35 METAR KJYO 172335Z AUTO 24003KT 10SM BKN080 OVC085 22/16 A2996 RMK AO2 =
2015-04-17 19:15 METAR KJYO 172315Z AUTO 22003KT 10SM SCT065 BKN090 22/16 A2996 RMK AO2 =
2015-04-17 18:55 METAR KJYO 172255Z AUTO 25006KT 10SM BKN065 23/16 A2996 RMK AO2 =
2015-04-17 18:35 METAR KJYO 172235Z AUTO 22008KT 10SM OVC060 23/16 A2996 RMK AO2 =
2015-04-17 18:15 METAR KJYO 172215Z AUTO 20008KT 10SM OVC060 25/15 A2996 RMK AO2 =
2015-04-17 17:55 METAR KJYO 172155Z AUTO 26003KT 10SM BKN060 OVC070 25/15 A2995 RMK AO2 =
2015-04-17 17:35 METAR KJYO 172135Z AUTO 29007KT 10SM BKN060 BKN075 OVC090 25/15 A2995 RMK AO2 =
2015-04-17 17:15 METAR KJYO 172115Z AUTO 30007KT 10SM SCT049 BKN060 OVC090 25/16 A2995 RMK AO2 =
2015-04-17 16:35 METAR KJYO 172035Z AUTO 29007KT 10SM SCT048 SCT080 25/16 A2996 RMK AO2 =
2015-04-17 16:15 METAR KJYO 172015Z AUTO 30006KT 10SM BKN048 BKN060 OVC065 25/16 A2997 RMK AO2 =
2015-04-17 15:55 METAR KJYO 171955Z AUTO 01005KT 10SM SCT048 BKN060 25/15 A2997 RMK AO2 =
2015-04-17 15:35 METAR KJYO 171935Z AUTO 00000KT 10SM SCT048 25/15 A2998 RMK AO2 =
2015-04-17 15:15 METAR KJYO 171915Z AUTO 03003KT 10SM CLR 25/16 A2999 RMK AO2 =
2015-04-17 14:55 METAR KJYO 171855Z AUTO 32009G14KT 310V010 10SM SCT043 BKN055 BKN065 24/16 A3000
                 RMK AO2 =
2015-04-17 14:35 METAR KJYO 171835Z AUTO 30008KT 10SM SCT043 BKN055 BKN075 24/16 A3001 RMK AO2 =
2015-04-17 14:15 METAR KJYO 171815Z AUTO 28005KT 10SM SCT043 BKN075 BKN095 25/16 A3001 RMK AO2 =
2015-04-17 13:55 METAR KJYO 171755Z AUTO 33006KT 10SM SCT043 BKN080 OVC120 24/16 A3002 RMK AO2 =
2015-04-17 13:35 METAR KJYO 171735Z AUTO 31008KT 10SM SCT040 SCT055 OVC120 24/16 A3003 RMK AO2 =
2015-04-17 13:15 METAR KJYO 171715Z AUTO 25005KT 10SM SCT040 BKN065 BKN120 24/16 A3003 RMK AO2 =
2015-04-17 12:55 METAR KJYO 171655Z AUTO 30004KT 10SM SCT038 SCT065 BKN100 23/16 A3003 RMK AO2 =
2015-04-17 12:35 METAR KJYO 171635Z AUTO 34005KT 10SM SCT036 SCT100 BKN120 23/16 A3004 RMK AO2 =
2015-04-17 12:15 METAR KJYO 171615Z AUTO 28009KT 250V310 10SM SCT035 SCT120 23/16 A3006 RMK AO2 =
2015-04-17 11:55 METAR KJYO 171555Z AUTO 00000KT 10SM CLR 22/16 A3006 RMK AO2 =
2015-04-17 11:35 METAR KJYO 171535Z AUTO 00000KT 10SM CLR 21/15 A3007 RMK AO2 =
2015-04-17 11:15 METAR KJYO 171515Z AUTO 00000KT 10SM CLR 21/15 A3008 RMK AO2 =
2015-04-17 10:35 METAR KJYO 171435Z AUTO 19003KT 10SM CLR 19/15 A3009 RMK AO2 =
2015-04-17 10:15 METAR KJYO 171415Z AUTO 00000KT 10SM CLR 18/15 A3009 RMK AO2 =
2015-04-17 09:55 METAR KJYO 171355Z AUTO 22006KT 10SM SCT014 18/15 A3010 RMK AO2 =
2015-04-17 09:15 METAR KJYO 171315Z AUTO 18004KT 10SM CLR 16/15 A3010 RMK AO2 =
2015-04-17 08:55 METAR KJYO 171255Z AUTO 20004KT 10SM SCT006 15/15 A3011 RMK AO2 =
2015-04-17 08:35 METAR KJYO 171235Z AUTO 22004KT 10SM SCT006 15/15 A3012 RMK AO2 =
2015-04-17 08:15 METAR KJYO 171215Z AUTO 19005KT 10SM CLR 14/14 A3012 RMK AO2 =
2015-04-17 07:55 METAR KJYO 171155Z AUTO 19005KT 10SM CLR 13/13 A3012 RMK AO2 =
2015-04-17 07:35 METAR KJYO 171135Z AUTO 19004KT 10SM SCT050 12/12 A3013 RMK AO2 =
2015-04-17 07:15 METAR KJYO 171115Z AUTO 17005KT 10SM BKN050 13/13 A3012 RMK AO2 =
2015-04-17 06:55 METAR KJYO 171055Z AUTO 19005KT 10SM SCT055 12/12 A3012 RMK AO2 =
2015-04-17 06:35 METAR KJYO 171035Z AUTO 18004KT 10SM CLR 12/12 A3013 RMK AO2 =
2015-04-17 06:15 METAR KJYO 171015Z AUTO 17004KT 10SM CLR 13/13 A3013 RMK AO2 =
2015-04-17 05:55 METAR KJYO 170955Z AUTO 17003KT 10SM CLR 13/13 A3013 RMK AO2 P0001 =
2015-04-17 05:15 METAR KJYO 170915Z AUTO 16004KT 10SM OVC070 13/13 A3014 RMK AO2 =
2015-04-17 04:55 METAR KJYO 170855Z AUTO 17003KT 10SM OVC060 13/13 A3014 RMK AO2 =
2015-04-17 04:35 METAR KJYO 170835Z AUTO 18004KT 10SM SCT037 OVC060 13/13 A3015 RMK AO2 =
2015-04-17 04:15 METAR KJYO 170815Z AUTO 16003KT 10SM SCT039 OVC060 13/13 A3015 RMK AO2 =
2015-04-17 03:55 METAR KJYO 170755Z AUTO 17004KT 10SM -DZ BKN032 BKN043 OVC060 13/13 A3015 RMK
                 AO2 =
2015-04-17 03:35 METAR KJYO 170735Z AUTO 19004KT 10SM -RA OVC032 13/13 A3016 RMK AO2 =
2015-04-17 03:15 METAR KJYO 170715Z AUTO 18004KT 7SM RA OVC032 13/13 A3017 RMK AO2 =

Support USWX by starting your Amazon purchase here.